Tagbilaran, Philippines

5:42 AM PHT on October 25, 2014 (GMT +0800)
Mactan-Cebu International | Change Station
CLOSE
Current Station
Airport
Location: Masbate,
Elevation: 30 ft
Nearby Weather Stations

Elev 30 ft 10.31 °N, 123.98 °E | Updated 42 minutes ago

Mostly Cloudy
Mostly Cloudy
77 °F
Feels Like 77 °F
N
0
Wind Variable Wind from North

Today
High -- | Low -- °F
--% Chance of Precip.
Yesterday
High -- | Low -- °F
Precip. -- in
5:33 AM 5:23 PM
New Moon, 1% visible
Pressure 29.86 in
Visibility 6.2 miles
Clouds Few 1800 ft
Mostly Cloudy 30000 ft
Dew Point 75 °F
Humidity 94%
Rainfall 0.00 in
Snow Depth Not available.
UV 0 out of 12
Pollen Not available.
Air Quality Not available.
Flu Activity Not available.
METAR RPVM 242100Z 00000KT 9999 FEW018CB BKN300 25/24 Q1011 RMK A2985

More Conditions Fewer Conditions

Pressure 29.86 in
Visibility 6.2 miles
Clouds Few 1800 ft
Mostly Cloudy 30000 ft
Dew Point 75 °F
Humidity 94%
Rainfall 0.00 in
Snow Depth Not available.
UV 0 out of 12
Pollen Not available.
Air Quality Not available.
Flu Activity Not available.
METAR RPVM 242100Z 00000KT 9999 FEW018CB BKN300 25/24 Q1011 RMK A2985

More Conditions Fewer Conditions

10-Day Weather Forecast

Almanac

Astronomy

Oct. 25, 2014 Rise Set
Actual Time 5:33 AM PHT 5:23 PM PHT
Civil Twilight 5:12 AM PHT 5:45 PM PHT
Nautical Twilight 4:47 AM PHT 6:09 PM PHT
Astronomical Twilight 4:22 AM PHT 6:34 PM PHT
Moon 6:28 AM PHT (10/25) 6:32 PM PHT (10/25)
Length of Visible Light 12h 33m
Length of Day
11h 50m
Tomorrow will be 0m 28s shorter.
New Moon, 1% of the Moon is Illuminated
Oct 24
New Moon
Oct 30
First Quarter
Nov 6
Full
Nov 14
Last Quarter
Nov 22
New

Yesterday's Extremes

Country Highs Country Lows

Community

WunderPhotos

Upload Photos

1,764,676 photos uploaded!

WunderBlogs® & News

By Dr. Jeff Masters
Director of Meteorology, Weather Underground
By Kari Strenfel
Meteorologist, Weather Underground
By Christopher C. Burt
Weather Historian, Weather Underground
October 24, 2014
October 24, 2014
October 24, 2014

Nearby

Snow Depth

Not available.

Earthquake Activity

City Distance Mag. Time & Date
No recent earthquake activity has been reported nearby.
Minimum magnitude displayed is 2.5.

Coastal Water Temperatures

Place Temperature
No Stations Reporting

Nearby Weather Stations